createdAt,value
2023-11-12T00:03:38.712Z,0
2023-11-12T00:06:22.877Z,0
2023-11-12T00:11:22.755Z,0
2023-11-12T00:16:23.405Z,0
2023-11-12T00:21:23.098Z,0
2023-11-12T00:26:23.222Z,0
2023-11-12T00:31:23.488Z,0
2023-11-12T00:36:24.595Z,0
2023-11-12T00:41:20.952Z,0
2023-11-12T00:46:20.622Z,0
2023-11-12T00:51:20.891Z,0
2023-11-12T00:56:21.067Z,0
2023-11-12T01:01:08.552Z,0
2023-11-12T01:06:08.251Z,0
2023-11-12T01:11:07.471Z,0
2023-11-12T01:16:07.464Z,0
2023-11-12T01:21:06.147Z,0
2023-11-12T01:26:05.482Z,0
2023-11-12T01:31:05.204Z,0
2023-11-12T01:36:05.438Z,0
2023-11-12T01:41:04.859Z,0
2023-11-12T01:46:04.835Z,0
2023-11-12T01:51:05.288Z,0
2023-11-12T01:56:05.220Z,0
2023-11-12T02:00:48.477Z,0
2023-11-12T02:05:46.044Z,0
2023-11-12T02:10:45.138Z,0
2023-11-12T02:15:45.200Z,0
2023-11-12T02:20:44.506Z,0
2023-11-12T02:25:45.333Z,0
2023-11-12T02:30:44.920Z,0
2023-11-12T02:35:44.424Z,0
2023-11-12T02:40:44.078Z,0
2023-11-12T02:45:41.735Z,0
2023-11-12T02:55:40.893Z,0
2023-11-12T03:00:41.340Z,0
2023-11-12T03:05:41.200Z,0
2023-11-12T03:10:40.921Z,0
2023-11-12T03:15:41.328Z,0
2023-11-12T03:20:41.070Z,0
2023-11-12T03:25:42.241Z,0
2023-11-12T03:30:38.287Z,0
2023-11-12T03:35:38.045Z,0
2023-11-12T03:40:37.772Z,0
2023-11-12T03:45:38.058Z,0
2023-11-12T03:50:38.249Z,0
2023-11-12T03:55:38.768Z,0
2023-11-12T04:00:38.900Z,0
2023-11-12T04:02:41.055Z,0
2023-11-12T04:07:10.727Z,0
2023-11-12T04:12:11.141Z,0
2023-11-12T04:17:11.369Z,0
2023-11-12T04:22:01.379Z,0
2023-11-12T04:27:01.699Z,0
2023-11-12T04:32:01.591Z,0
2023-11-12T04:37:02.707Z,0
2023-11-12T04:42:09.194Z,0
2023-11-12T04:47:10.154Z,0
2023-11-12T04:52:10.076Z,0
2023-11-12T04:57:10.592Z,0
2023-11-12T05:01:33.138Z,0
2023-11-12T05:06:32.975Z,0
2023-11-12T05:11:46.207Z,0
2023-11-12T05:16:30.405Z,0
2023-11-12T05:21:29.878Z,0
2023-11-12T05:26:29.848Z,0
2023-11-12T05:31:29.503Z,0
2023-11-12T05:36:29.037Z,0
2023-11-12T05:41:29.265Z,0
2023-11-12T05:46:29.160Z,0
2023-11-12T05:51:29.297Z,0
2023-11-12T05:56:26.710Z,0
2023-11-12T06:01:03.416Z,0
2023-11-12T06:06:03.431Z,0
2023-11-12T06:11:03.179Z,0
2023-11-12T06:16:05.410Z,0
2023-11-12T06:21:03.088Z,0
2023-11-12T06:26:03.240Z,0
2023-11-12T06:31:03.398Z,0
2023-11-12T06:36:04.444Z,0
2023-11-12T06:41:11.098Z,0
2023-11-12T06:46:01.478Z,0
2023-11-12T06:56:11.815Z,0
2023-11-12T07:01:01.868Z,0
2023-11-12T07:06:01.586Z,0
2023-11-12T07:11:01.576Z,0
2023-11-12T07:16:09.873Z,0
2023-11-12T07:21:10.443Z,0
2023-11-12T07:26:10.429Z,0
2023-11-12T07:31:11.051Z,0
2023-11-12T07:36:11.320Z,0
2023-11-12T07:41:12.100Z,0
2023-11-12T07:46:11.381Z,0
2023-11-12T07:51:09.231Z,0
2023-11-12T07:56:09.914Z,0
2023-11-12T08:01:08.549Z,0
2023-11-12T08:11:08.633Z,0
2023-11-12T08:16:08.786Z,0
2023-11-12T08:21:07.123Z,0
2023-11-12T08:26:07.358Z,0
2023-11-12T08:31:07.098Z,0
2023-11-12T08:36:07.373Z,0
2023-11-12T08:41:08.102Z,0
2023-11-12T08:46:08.149Z,0
2023-11-12T08:51:06.476Z,0
2023-11-12T08:56:06.880Z,0
2023-11-12T09:01:07.216Z,0
2023-11-12T09:06:07.717Z,0
2023-11-12T09:11:07.663Z,0
2023-11-12T09:16:08.623Z,0
2023-11-12T09:21:09.667Z,0
2023-11-12T09:26:12.530Z,0
2023-11-12T09:31:23.461Z,0
2023-11-12T09:36:06.839Z,0
2023-11-12T09:41:07.486Z,0
2023-11-12T09:46:07.814Z,0
2023-11-12T09:51:08.116Z,0
2023-11-12T09:56:06.134Z,0
2023-11-12T10:00:58.675Z,0
2023-11-12T10:05:55.340Z,0
2023-11-12T10:10:53.760Z,0
2023-11-12T10:15:53.511Z,0
2023-11-12T10:20:54.223Z,0
2023-11-12T10:25:54.008Z,0
2023-11-12T10:30:55.732Z,0
2023-11-12T10:35:51.452Z,0
2023-11-12T10:40:51.003Z,0
2023-11-12T10:45:50.855Z,0
2023-11-12T10:50:51.129Z,0
2023-11-12T10:55:50.680Z,0
2023-11-12T11:00:50.865Z,0
2023-11-12T11:10:50.813Z,0
2023-11-12T11:15:52.301Z,0
2023-11-12T11:20:48.224Z,0
2023-11-12T11:25:47.954Z,0
2023-11-12T11:30:48.095Z,0
2023-11-12T11:35:48.614Z,0
2023-11-12T11:40:48.172Z,0
2023-11-12T11:45:48.447Z,0
2023-11-12T11:55:48.013Z,0
2023-11-12T12:00:45.902Z,0
2023-11-12T12:02:48.013Z,0
2023-11-12T12:07:07.933Z,0
2023-11-12T12:12:08.311Z,0
2023-11-12T12:17:08.423Z,0
2023-11-12T12:22:08.982Z,0
2023-11-12T12:27:08.344Z,0
2023-11-12T12:32:08.378Z,0
2023-11-12T12:37:07.261Z,0
2023-11-12T12:42:07.366Z,0
2023-11-12T12:47:08.697Z,0
2023-11-12T12:52:09.621Z,0
2023-11-12T12:57:06.447Z,0
2023-11-12T13:01:28.564Z,0
2023-11-12T13:06:28.826Z,0
2023-11-12T13:11:28.971Z,0
2023-11-12T13:16:29.029Z,0
2023-11-12T13:21:26.719Z,0
2023-11-12T13:26:25.904Z,0
2023-11-12T13:31:25.857Z,0
2023-11-12T13:36:25.544Z,0
2023-11-12T13:41:27.388Z,0
2023-11-12T13:46:26.315Z,0
2023-11-12T13:51:25.732Z,0
2023-11-12T13:56:28.839Z,0
2023-11-12T14:01:07.303Z,0
2023-11-12T14:06:06.785Z,0
2023-11-12T14:11:06.345Z,0
2023-11-12T14:16:07.212Z,0
2023-11-12T14:21:08.697Z,0
2023-11-12T14:26:06.919Z,0
2023-11-12T14:31:07.054Z,0
2023-11-12T14:36:07.485Z,0
2023-11-12T14:41:07.775Z,0
2023-11-12T14:46:16.334Z,0
2023-11-12T14:51:03.950Z,0
2023-11-12T14:56:13.261Z,0
2023-11-12T15:00:46.908Z,0
2023-11-12T15:05:46.430Z,0
2023-11-12T15:10:46.225Z,0.1
2023-11-12T15:15:46.515Z,0.2
2023-11-12T15:20:47.668Z,0.5
2023-11-12T15:25:43.756Z,0.5
2023-11-12T15:30:43.646Z,0.7
2023-11-12T15:35:43.934Z,0.7
2023-11-12T15:40:44.026Z,1
2023-11-12T15:45:43.957Z,1.1
2023-11-12T15:50:44.180Z,1.2
2023-11-12T15:55:43.660Z,1.5
2023-11-12T16:00:47.111Z,1.5
2023-11-12T16:05:45.834Z,1.6
2023-11-12T16:10:50.877Z,1.5
2023-11-12T16:15:41.198Z,1.3
2023-11-12T16:20:41.341Z,1.4
2023-11-12T16:25:41.252Z,1.2
2023-11-12T16:30:41.043Z,1.3
2023-11-12T16:35:40.881Z,1
2023-11-12T16:40:40.792Z,1
2023-11-12T16:45:40.983Z,0.9
2023-11-12T16:50:38.637Z,0.7
2023-11-12T16:55:38.328Z,0.6
2023-11-12T17:00:40.500Z,0.6
2023-11-12T17:02:43.053Z,0.6
2023-11-12T17:07:12.472Z,0.6
2023-11-12T17:12:01.785Z,0.6
2023-11-12T17:17:12.863Z,0.5
2023-11-12T17:22:10.740Z,0.5
2023-11-12T17:27:12.485Z,0.5
2023-11-12T17:32:10.597Z,0.5
2023-11-12T17:37:11.091Z,0.3
2023-11-12T17:42:11.017Z,0.3
2023-11-12T17:47:11.856Z,0.4
2023-11-12T17:52:12.727Z,0.4
2023-11-12T17:57:08.999Z,0.3
2023-11-12T18:01:29.865Z,0.3
2023-11-12T18:06:30.643Z,0.3
2023-11-12T18:11:29.598Z,0.1
2023-11-12T18:16:29.667Z,0.1
2023-11-12T18:21:33.653Z,0.1
2023-11-12T18:26:29.675Z,0.1
2023-11-12T18:31:35.190Z,0.1
2023-11-12T18:36:27.366Z,0.1
2023-11-12T18:41:26.951Z,0.1
2023-11-12T18:46:27.221Z,0
2023-11-12T18:51:26.606Z,0
2023-11-12T18:56:26.657Z,0
2023-11-12T19:01:12.780Z,0
2023-11-12T19:11:09.686Z,0
2023-11-12T19:16:06.474Z,0
2023-11-12T19:21:05.946Z,0
2023-11-12T19:26:05.665Z,0
2023-11-12T19:31:21.439Z,0
2023-11-12T19:36:06.862Z,0
2023-11-12T19:41:05.529Z,0
2023-11-12T19:46:06.635Z,0
2023-11-12T19:51:06.000Z,0
2023-11-12T19:56:07.465Z,0
2023-11-12T20:00:47.603Z,0
2023-11-12T20:05:45.911Z,0
2023-11-12T20:10:46.286Z,0
2023-11-12T20:15:45.803Z,0
2023-11-12T20:20:45.709Z,0
2023-11-12T20:25:46.619Z,0
2023-11-12T20:30:46.242Z,0
2023-11-12T20:35:47.441Z,0
2023-11-12T20:40:43.460Z,0
2023-11-12T20:45:43.179Z,0
2023-11-12T20:50:43.053Z,0
2023-11-12T20:55:42.620Z,0
2023-11-12T21:00:42.849Z,0
2023-11-12T21:05:44.965Z,0
2023-11-12T21:10:44.701Z,0
2023-11-12T21:15:44.068Z,0
2023-11-12T21:20:43.447Z,0
2023-11-12T21:25:41.016Z,0
2023-11-12T21:30:40.820Z,0
2023-11-12T21:35:40.542Z,0
2023-11-12T21:40:40.637Z,0
2023-11-12T21:45:40.107Z,0
2023-11-12T21:50:40.360Z,0
2023-11-12T21:55:41.026Z,0
2023-11-12T22:00:37.190Z,0
2023-11-12T22:02:39.287Z,0
2023-11-12T22:07:09.834Z,0
2023-11-12T22:12:10.530Z,0
2023-11-12T22:17:11.266Z,0
2023-11-12T22:22:11.546Z,0
2023-11-12T22:27:18.202Z,0
2023-11-12T22:32:09.695Z,0.1
2023-11-12T22:37:08.781Z,0.1
2023-11-12T22:42:09.280Z,0.1
2023-11-12T22:47:09.332Z,0.1
2023-11-12T22:52:09.770Z,0.3
2023-11-12T22:57:09.974Z,0.3
2023-11-12T23:01:43.517Z,0.3
2023-11-12T23:06:30.922Z,0.3
2023-11-12T23:11:31.084Z,0.3
2023-11-12T23:16:31.519Z,0.3
2023-11-12T23:21:41.009Z,0.2
2023-11-12T23:26:31.756Z,0.2
2023-11-12T23:31:31.803Z,0.1
2023-11-12T23:36:31.840Z,0.1
2023-11-12T23:41:29.192Z,0.3
2023-11-12T23:46:28.640Z,0.3
2023-11-12T23:51:28.467Z,0.5
2023-11-12T23:56:28.831Z,0.7
